createdAt,value
2023-03-18T00:00:10.240Z,1.10
2023-03-18T00:02:38.791Z,0.90
2023-03-18T00:05:07.484Z,0.90
2023-03-18T00:07:36.177Z,1.35
2023-03-18T00:10:04.653Z,1.13
2023-03-18T00:12:32.402Z,1.08
2023-03-18T00:14:59.704Z,1.00
2023-03-18T00:17:26.430Z,1.05
2023-03-18T00:19:52.994Z,1.10
2023-03-18T00:22:19.541Z,1.42
2023-03-18T00:24:46.147Z,1.25
2023-03-18T00:27:12.675Z,1.42
2023-03-18T00:29:39.937Z,1.70
2023-03-18T00:32:09.009Z,0.90
2023-03-18T00:34:35.633Z,1.23
2023-03-18T00:37:02.164Z,1.20
2023-03-18T00:39:32.821Z,1.33
2023-03-18T00:42:01.914Z,1.17
2023-03-18T00:44:29.023Z,1.25
2023-03-18T00:46:55.653Z,1.60
2023-03-18T00:49:22.260Z,1.20
2023-03-18T00:51:48.865Z,1.52
2023-03-18T00:54:18.089Z,1.15
2023-03-18T00:56:44.940Z,1.58
2023-03-18T00:59:11.910Z,1.35
2023-03-18T01:01:39.031Z,1.75
2023-03-18T01:04:06.986Z,1.48
2023-03-18T01:06:35.356Z,1.25
2023-03-18T01:09:04.871Z,1.10
2023-03-18T01:11:31.694Z,1.55
2023-03-18T01:13:59.483Z,1.20
2023-03-18T01:16:26.755Z,0.90
2023-03-18T01:18:53.870Z,0.75
2023-03-18T01:21:20.842Z,0.70
2023-03-18T01:23:52.526Z,1.00
2023-03-18T01:26:19.334Z,0.80
2023-03-18T01:28:47.272Z,1.20
2023-03-18T01:31:15.249Z,1.10
2023-03-18T01:33:43.541Z,1.10
2023-03-18T01:36:10.493Z,0.93
2023-03-18T01:38:37.871Z,1.17
2023-03-18T01:41:11.369Z,1.48
2023-03-18T01:43:41.062Z,1.08
2023-03-18T01:46:26.700Z,1.35
2023-03-18T01:48:53.423Z,0.88
2023-03-18T01:51:21.012Z,0.68
2023-03-18T01:53:49.691Z,0.68
2023-03-18T01:56:18.301Z,1.05
2023-03-18T01:58:47.965Z,0.93
2023-03-18T02:01:21.723Z,0.82
2023-03-18T02:03:51.201Z,0.98
2023-03-18T02:06:18.989Z,1.05
2023-03-18T02:08:54.515Z,0.73
2023-03-18T02:13:53.250Z,0.90
2023-03-18T02:16:28.109Z,0.80
2023-03-18T02:19:25.296Z,0.80
2023-03-18T02:22:05.168Z,0.85
2023-03-18T02:24:44.151Z,0.75
2023-03-18T02:27:19.688Z,1.05
2023-03-18T02:29:48.273Z,1.25
2023-03-18T02:32:20.693Z,1.10
2023-03-18T02:34:48.066Z,0.75
2023-03-18T02:37:15.355Z,0.90
2023-03-18T02:39:42.688Z,0.70
2023-03-18T02:42:14.499Z,0.52
2023-03-18T02:44:47.952Z,0.80
2023-03-18T02:47:33.165Z,1.00
2023-03-18T02:49:59.973Z,0.80
2023-03-18T02:52:27.352Z,0.65
2023-03-18T02:54:58.331Z,0.80
2023-03-18T02:57:26.693Z,0.70
2023-03-18T02:59:53.232Z,0.93
2023-03-18T03:02:19.767Z,0.73
2023-03-18T03:04:47.225Z,1.13
2023-03-18T03:07:16.155Z,0.80
2023-03-18T03:09:47.172Z,1.50
2023-03-18T03:12:14.346Z,0.77
2023-03-18T03:14:46.710Z,0.68
2023-03-18T03:17:15.271Z,0.75
2023-03-18T03:19:45.788Z,0.63
2023-03-18T03:22:14.334Z,0.82
2023-03-18T03:24:40.858Z,0.70
2023-03-18T03:27:07.580Z,0.70
2023-03-18T03:29:34.448Z,0.70
2023-03-18T03:32:01.948Z,0.60
2023-03-18T03:34:28.575Z,1.00
2023-03-18T03:36:55.097Z,1.02
2023-03-18T03:39:24.575Z,0.55
2023-03-18T03:41:52.863Z,0.80
2023-03-18T03:44:19.512Z,0.73
2023-03-18T03:46:48.913Z,0.73
2023-03-18T03:49:15.567Z,0.68
2023-03-18T03:51:42.489Z,0.73
2023-03-18T03:54:09.488Z,0.70
2023-03-18T03:56:36.415Z,0.80
2023-03-18T03:59:04.751Z,0.63
2023-03-18T04:01:51.256Z,0.68
2023-03-18T04:04:17.910Z,0.80
2023-03-18T04:06:44.760Z,0.63
2023-03-18T04:09:11.837Z,0.63
2023-03-18T04:11:38.395Z,0.50
2023-03-18T04:14:04.970Z,1.10
2023-03-18T04:16:31.714Z,0.65
2023-03-18T04:18:58.390Z,0.57
2023-03-18T04:21:25.095Z,0.77
2023-03-18T04:23:54.096Z,0.80
2023-03-18T04:26:20.899Z,1.35
2023-03-18T04:28:48.326Z,1.02
2023-03-18T04:31:16.701Z,0.50
2023-03-18T04:33:44.758Z,0.70
2023-03-18T04:36:11.423Z,0.60
2023-03-18T04:38:38.232Z,0.93
2023-03-18T04:41:06.738Z,0.45
2023-03-18T04:43:33.830Z,0.65
2023-03-18T04:46:00.864Z,0.55
2023-03-18T04:48:28.495Z,0.80
2023-03-18T04:50:57.258Z,0.65
2023-03-18T04:53:28.434Z,0.60
2023-03-18T04:55:55.716Z,0.40
2023-03-18T04:58:28.252Z,0.70
2023-03-18T05:01:10.846Z,0.40
2023-03-18T05:03:38.885Z,0.70
2023-03-18T05:06:08.028Z,0.52
2023-03-18T05:08:48.492Z,0.50
2023-03-18T05:11:15.142Z,1.17
2023-03-18T05:13:41.986Z,0.47
2023-03-18T05:16:10.539Z,0.47
2023-03-18T05:18:38.055Z,0.77
2023-03-18T05:21:07.382Z,0.45
2023-03-18T05:23:34.324Z,0.82
2023-03-18T05:26:01.578Z,0.70
2023-03-18T05:28:29.418Z,0.55
2023-03-18T05:31:11.184Z,0.50
2023-03-18T05:33:42.439Z,0.95
2023-03-18T05:36:10.596Z,0.50
2023-03-18T05:38:46.106Z,0.55
2023-03-18T05:41:12.755Z,0.75
2023-03-18T05:43:42.549Z,0.60
2023-03-18T05:46:09.610Z,0.70
2023-03-18T05:48:54.923Z,0.63
2023-03-18T05:51:24.748Z,0.55
2023-03-18T05:53:51.322Z,0.43
2023-03-18T05:56:24.624Z,0.73
2023-03-18T05:58:54.946Z,0.43
2023-03-18T06:01:37.399Z,1.17
2023-03-18T06:04:06.125Z,0.70
2023-03-18T06:06:33.730Z,0.50
2023-03-18T06:09:00.971Z,0.65
2023-03-18T06:11:29.304Z,0.45
2023-03-18T06:13:56.798Z,0.70
2023-03-18T06:16:24.148Z,0.57
2023-03-18T06:18:53.578Z,0.63
2023-03-18T06:21:20.128Z,0.75
2023-03-18T06:23:47.297Z,0.70
2023-03-18T06:26:14.038Z,0.45
2023-03-18T06:28:47.069Z,0.60
2023-03-18T06:31:15.469Z,0.60
2023-03-18T06:33:42.144Z,0.50
2023-03-18T06:36:11.586Z,0.88
2023-03-18T06:38:44.960Z,0.50
2023-03-18T06:41:12.127Z,0.50
2023-03-18T06:43:47.814Z,0.55
2023-03-18T06:46:14.653Z,0.50
2023-03-18T06:48:44.536Z,0.50
2023-03-18T06:51:13.668Z,0.40
2023-03-18T06:53:42.115Z,0.40
2023-03-18T06:56:09.831Z,0.60
2023-03-18T06:58:49.941Z,0.63
2023-03-18T07:01:17.518Z,0.60
2023-03-18T07:03:45.650Z,0.45
2023-03-18T07:06:12.996Z,0.52
2023-03-18T07:08:40.711Z,0.60
2023-03-18T07:11:07.478Z,0.70
2023-03-18T07:13:37.484Z,0.52
2023-03-18T07:16:07.948Z,0.40
2023-03-18T07:18:34.625Z,0.40
2023-03-18T07:21:01.348Z,0.45
2023-03-18T07:23:28.709Z,0.40
2023-03-18T07:25:57.409Z,0.73
2023-03-18T07:28:24.659Z,0.40
2023-03-18T07:30:53.985Z,0.65
2023-03-18T07:33:20.979Z,0.40
2023-03-18T07:35:48.281Z,0.55
2023-03-18T07:38:14.807Z,0.50
2023-03-18T07:40:41.752Z,0.55
2023-03-18T07:43:09.159Z,0.60
2023-03-18T07:45:35.780Z,0.60
2023-03-18T07:48:02.283Z,0.70
2023-03-18T07:50:29.004Z,0.52
2023-03-18T07:52:55.557Z,0.50
2023-03-18T07:55:22.136Z,0.70
2023-03-18T07:57:49.127Z,0.40
2023-03-18T08:00:16.480Z,0.50
2023-03-18T08:02:43.060Z,0.45
2023-03-18T08:05:10.638Z,0.60
2023-03-18T08:07:38.107Z,0.77
2023-03-18T08:10:05.276Z,0.52
2023-03-18T08:12:45.333Z,0.60
2023-03-18T08:15:17.788Z,0.60
2023-03-18T08:17:44.325Z,0.40
2023-03-18T08:20:12.283Z,0.40
2023-03-18T08:22:38.944Z,0.40
2023-03-18T08:25:05.782Z,0.57
2023-03-18T08:27:33.087Z,0.47
2023-03-18T08:30:02.969Z,0.45
2023-03-18T08:32:30.699Z,0.57
2023-03-18T08:34:57.852Z,0.63
2023-03-18T08:37:24.664Z,1.75
2023-03-18T08:39:51.467Z,0.50
2023-03-18T08:42:19.082Z,0.45
2023-03-18T08:44:45.688Z,0.30
2023-03-18T08:47:12.272Z,0.60
2023-03-18T08:49:39.257Z,0.47
2023-03-18T08:52:06.767Z,0.30
2023-03-18T08:54:33.431Z,0.28
2023-03-18T08:57:00.592Z,0.55
2023-03-18T08:59:27.293Z,0.43
2023-03-18T09:01:53.941Z,0.43
2023-03-18T09:04:20.481Z,0.55
2023-03-18T09:06:48.858Z,0.70
2023-03-18T09:09:15.676Z,0.65
2023-03-18T09:11:42.313Z,0.60
2023-03-18T09:14:08.896Z,0.45
2023-03-18T09:16:36.249Z,0.50
2023-03-18T09:19:03.385Z,0.60
2023-03-18T09:21:29.897Z,0.30
2023-03-18T09:23:56.522Z,0.40
2023-03-18T09:26:23.648Z,0.55
2023-03-18T09:28:50.328Z,0.60
2023-03-18T09:31:16.953Z,0.70
2023-03-18T09:33:43.794Z,0.38
2023-03-18T09:36:10.561Z,0.28
2023-03-18T09:38:37.163Z,0.40
2023-03-18T09:41:09.763Z,0.50
2023-03-18T09:44:08.391Z,0.45
2023-03-18T09:47:00.330Z,0.45
2023-03-18T09:49:35.353Z,0.40
2023-03-18T09:52:23.079Z,0.47
2023-03-18T09:55:02.921Z,0.60
2023-03-18T09:57:37.040Z,0.77
2023-03-18T10:00:16.044Z,0.47
2023-03-18T10:02:47.838Z,0.45
2023-03-18T10:05:43.134Z,0.40
2023-03-18T10:08:34.561Z,0.50
2023-03-18T10:11:06.470Z,0.40
2023-03-18T10:13:43.302Z,0.60
2023-03-18T10:16:18.619Z,0.60
2023-03-18T10:18:45.514Z,0.50
2023-03-18T10:21:37.231Z,0.93
2023-03-18T10:24:26.318Z,0.60
2023-03-18T10:27:08.855Z,0.63
2023-03-18T10:29:47.352Z,0.60
2023-03-18T10:32:46.562Z,0.63
2023-03-18T10:35:31.253Z,0.30
2023-03-18T10:38:07.304Z,0.43
2023-03-18T10:40:41.314Z,0.57
2023-03-18T10:43:19.468Z,0.50
2023-03-18T10:45:48.937Z,0.80
2023-03-18T10:48:30.764Z,0.65
2023-03-18T10:50:57.242Z,0.75
2023-03-18T10:53:29.718Z,0.40
2023-03-18T10:56:07.304Z,0.73
2023-03-18T10:58:34.522Z,0.40
2023-03-18T11:01:01.088Z,0.20
2023-03-18T11:03:34.822Z,0.52
2023-03-18T11:06:04.581Z,0.45
2023-03-18T11:08:35.709Z,0.35
2023-03-18T11:11:17.508Z,0.60
2023-03-18T11:13:53.006Z,0.60
2023-03-18T11:16:30.447Z,0.57
2023-03-18T11:18:58.191Z,0.52
2023-03-18T11:21:28.778Z,1.15
2023-03-18T11:24:21.289Z,0.88
2023-03-18T11:26:54.042Z,0.50
2023-03-18T11:29:25.813Z,0.87
2023-03-18T11:32:00.269Z,0.80
2023-03-18T11:34:32.041Z,0.70
2023-03-18T11:37:04.420Z,0.90
2023-03-18T11:39:33.926Z,0.55
2023-03-18T11:42:01.497Z,0.80
2023-03-18T11:44:33.068Z,0.50
2023-03-18T11:47:06.498Z,0.80
2023-03-18T11:52:41.060Z,0.40
2023-03-18T11:55:52.931Z,0.90
2023-03-18T11:58:22.339Z,0.65
2023-03-18T12:01:13.491Z,0.57
2023-03-18T12:03:45.677Z,0.47
2023-03-18T12:06:23.687Z,0.93
2023-03-18T12:09:01.008Z,0.70
2023-03-18T12:11:39.744Z,0.77
2023-03-18T12:14:31.414Z,0.47
2023-03-18T12:17:27.466Z,1.23
2023-03-18T12:20:33.766Z,0.75
2023-03-18T12:23:31.179Z,0.77
2023-03-18T12:26:03.863Z,0.77
2023-03-18T12:28:47.717Z,0.90
2023-03-18T12:33:56.286Z,0.63
2023-03-18T12:39:33.819Z,0.90
2023-03-18T12:42:07.175Z,0.68
2023-03-18T12:44:53.017Z,0.50
2023-03-18T12:47:25.451Z,1.00
2023-03-18T12:50:03.750Z,0.85
2023-03-18T12:52:47.067Z,1.02
2023-03-18T12:55:33.734Z,1.23
2023-03-18T12:58:27.050Z,1.00
2023-03-18T13:01:09.577Z,0.50
2023-03-18T13:03:41.865Z,0.50
2023-03-18T13:06:30.907Z,1.15
2023-03-18T13:09:06.236Z,1.10
2023-03-18T13:12:02.003Z,0.60
2023-03-18T13:14:41.047Z,0.90
2023-03-18T13:17:13.803Z,0.85
2023-03-18T13:19:42.106Z,0.60
2023-03-18T13:22:27.201Z,0.77
2023-03-18T13:25:22.309Z,0.95
2023-03-18T13:27:55.187Z,0.98
2023-03-18T13:30:30.887Z,0.90
2023-03-18T13:33:27.094Z,0.50
2023-03-18T13:36:10.513Z,0.82
2023-03-18T13:38:43.032Z,0.82
2023-03-18T13:41:18.768Z,1.05
2023-03-18T13:43:49.207Z,0.80
2023-03-18T13:46:25.271Z,0.65
2023-03-18T13:49:01.122Z,0.95
2023-03-18T13:51:28.606Z,1.20
2023-03-18T13:54:00.645Z,1.02
2023-03-18T13:56:47.368Z,0.80
2023-03-18T13:59:35.526Z,1.00
2023-03-18T14:02:31.327Z,0.85
2023-03-18T14:04:59.490Z,0.90
2023-03-18T14:07:27.624Z,0.82
2023-03-18T14:10:15.281Z,0.90
2023-03-18T14:12:47.549Z,1.17
2023-03-18T14:15:14.759Z,0.90
2023-03-18T14:17:48.968Z,0.80
2023-03-18T14:20:17.010Z,0.82
2023-03-18T14:22:46.208Z,0.80
2023-03-18T14:25:24.235Z,0.88
2023-03-18T14:28:19.405Z,0.43
2023-03-18T14:30:49.505Z,0.73
2023-03-18T14:33:19.038Z,0.80
2023-03-18T14:36:03.707Z,0.95
2023-03-18T14:38:54.748Z,1.10
2023-03-18T14:41:30.371Z,0.90
2023-03-18T14:44:06.725Z,1.38
2023-03-18T14:46:39.073Z,0.75
2023-03-18T14:49:32.381Z,0.65
2023-03-18T14:52:02.608Z,0.83
2023-03-18T14:54:33.651Z,0.90
2023-03-18T14:57:04.285Z,0.77
2023-03-18T14:59:31.621Z,0.82
2023-03-18T15:01:58.525Z,0.60
2023-03-18T15:04:27.231Z,0.75
2023-03-18T15:06:56.681Z,0.85
2023-03-18T15:09:27.484Z,1.20
2023-03-18T15:11:54.734Z,0.77
2023-03-18T15:14:27.118Z,0.55
2023-03-18T15:17:01.945Z,0.77
2023-03-18T15:19:29.412Z,0.98
2023-03-18T15:21:58.803Z,1.17
2023-03-18T15:24:26.888Z,0.95
2023-03-18T15:27:14.554Z,0.65
2023-03-18T15:29:54.459Z,0.70
2023-03-18T15:32:26.466Z,0.90
2023-03-18T15:35:22.646Z,1.00
2023-03-18T15:38:06.602Z,0.50
2023-03-18T15:40:37.912Z,0.68
2023-03-18T15:43:10.662Z,0.93
2023-03-18T15:45:45.359Z,0.80
2023-03-18T15:48:24.889Z,1.08
2023-03-18T15:50:52.881Z,0.90
2023-03-18T15:53:30.231Z,0.77
2023-03-18T15:55:59.009Z,1.05
2023-03-18T15:58:36.449Z,1.00
2023-03-18T16:01:03.992Z,0.80
2023-03-18T16:03:34.927Z,1.10
2023-03-18T16:06:02.328Z,0.88
2023-03-18T16:08:28.960Z,1.13
2023-03-18T16:10:57.810Z,1.17
2023-03-18T16:13:29.818Z,0.60
2023-03-18T16:15:56.695Z,0.80
2023-03-18T16:18:23.340Z,0.82
2023-03-18T16:20:51.046Z,1.10
2023-03-18T16:23:18.729Z,1.20
2023-03-18T16:25:51.161Z,1.00
2023-03-18T16:28:23.833Z,0.90
2023-03-18T16:30:53.246Z,1.13
2023-03-18T16:33:20.552Z,1.48
2023-03-18T16:35:56.765Z,1.25
2023-03-18T16:38:23.700Z,0.82
2023-03-18T16:40:50.649Z,0.82
2023-03-18T16:43:22.952Z,1.15
2023-03-18T16:45:50.926Z,0.90
2023-03-18T16:48:20.405Z,1.30
2023-03-18T16:50:49.881Z,1.17
2023-03-18T16:53:28.552Z,0.75
2023-03-18T16:55:59.624Z,1.23
2023-03-18T16:58:30.255Z,1.00
2023-03-18T17:00:57.872Z,0.93
2023-03-18T17:03:24.506Z,0.82
2023-03-18T17:05:51.887Z,1.08
2023-03-18T17:08:22.118Z,1.10
2023-03-18T17:10:52.448Z,1.58
2023-03-18T17:13:23.012Z,0.82
2023-03-18T17:15:51.185Z,1.83
2023-03-18T17:18:20.617Z,1.00
2023-03-18T17:20:48.188Z,0.80
2023-03-18T17:23:17.205Z,1.17
2023-03-18T17:25:48.390Z,1.25
2023-03-18T17:28:22.090Z,1.70
2023-03-18T17:30:48.740Z,1.38
2023-03-18T17:33:23.272Z,1.02
2023-03-18T17:35:50.696Z,1.10
2023-03-18T17:38:17.320Z,1.10
2023-03-18T17:40:44.315Z,1.35
2023-03-18T17:43:27.806Z,1.30
2023-03-18T17:45:56.597Z,0.60
2023-03-18T17:48:25.976Z,1.00
2023-03-18T17:51:07.309Z,1.00
2023-03-18T17:53:46.313Z,0.93
2023-03-18T17:56:15.811Z,1.10
2023-03-18T17:58:47.977Z,0.73
2023-03-18T18:01:17.978Z,0.98
2023-03-18T18:03:44.650Z,1.20
2023-03-18T18:06:17.565Z,0.85
2023-03-18T18:08:44.259Z,0.57
2023-03-18T18:11:22.263Z,0.88
2023-03-18T18:13:50.048Z,1.48
2023-03-18T18:16:17.040Z,1.08
2023-03-18T18:18:43.662Z,0.98
2023-03-18T18:21:15.253Z,1.02
2023-03-18T18:23:42.868Z,1.25
2023-03-18T18:26:14.615Z,0.82
2023-03-18T18:28:44.735Z,0.60
2023-03-18T18:31:12.660Z,1.35
2023-03-18T18:33:41.865Z,0.90
2023-03-18T18:36:09.629Z,1.20
2023-03-18T18:38:36.385Z,1.10
2023-03-18T18:41:03.000Z,1.08
2023-03-18T18:43:29.726Z,0.85
2023-03-18T18:45:57.624Z,1.13
2023-03-18T18:48:32.088Z,0.70
2023-03-18T18:51:05.664Z,1.27
2023-03-18T18:56:14.176Z,1.10
2023-03-18T18:58:42.028Z,0.82
2023-03-18T19:01:08.714Z,0.95
2023-03-18T19:03:35.619Z,0.98
2023-03-18T19:06:04.726Z,1.27
2023-03-18T19:08:36.189Z,0.80
2023-03-18T19:11:06.972Z,0.70
2023-03-18T19:13:34.972Z,1.13
2023-03-18T19:16:13.066Z,0.90
2023-03-18T19:18:41.779Z,1.50
2023-03-18T19:21:08.768Z,1.30
2023-03-18T19:23:36.091Z,1.00
2023-03-18T19:26:04.346Z,0.90
2023-03-18T19:28:55.337Z,1.13
2023-03-18T19:31:30.603Z,1.02
2023-03-18T19:33:59.424Z,1.38
2023-03-18T19:36:30.113Z,1.13
2023-03-18T19:39:02.070Z,1.20
2023-03-18T19:41:29.477Z,0.90
2023-03-18T19:44:03.873Z,1.05
2023-03-18T19:46:39.378Z,1.00
2023-03-18T19:49:24.979Z,1.45
2023-03-18T19:51:51.994Z,1.52
2023-03-18T19:54:28.038Z,2.38
2023-03-18T19:56:57.288Z,1.65
2023-03-18T19:59:25.318Z,2.00
2023-03-18T20:01:51.894Z,2.28
2023-03-18T20:04:19.614Z,2.05
2023-03-18T20:06:50.557Z,1.80
2023-03-18T20:09:19.973Z,1.52
2023-03-18T20:11:48.462Z,1.50
2023-03-18T20:14:37.826Z,1.90
2023-03-18T20:17:23.262Z,1.10
2023-03-18T20:19:50.414Z,1.38
2023-03-18T20:22:27.393Z,2.05
2023-03-18T20:24:54.344Z,1.42
2023-03-18T20:27:21.891Z,1.60
2023-03-18T20:29:48.870Z,1.45
2023-03-18T20:32:15.624Z,1.42
2023-03-18T20:34:43.731Z,1.25
2023-03-18T20:37:26.542Z,1.30
2023-03-18T20:39:53.523Z,1.50
2023-03-18T20:42:20.125Z,1.73
2023-03-18T20:44:46.729Z,1.30
2023-03-18T20:47:13.499Z,1.70
2023-03-18T20:49:41.229Z,1.00
2023-03-18T20:52:29.412Z,1.77
2023-03-18T20:54:57.012Z,1.20
2023-03-18T20:57:24.871Z,1.20
2023-03-18T20:59:51.893Z,1.23
2023-03-18T21:02:33.278Z,1.23
2023-03-18T21:05:01.604Z,1.17
2023-03-18T21:07:28.980Z,1.50
2023-03-18T21:09:55.909Z,1.38
2023-03-18T21:12:22.989Z,1.40
2023-03-18T21:14:49.978Z,0.93
2023-03-18T21:17:25.948Z,1.38
2023-03-18T21:19:54.820Z,1.30
2023-03-18T21:22:25.766Z,1.30
2023-03-18T21:24:52.431Z,1.73
2023-03-18T21:27:24.559Z,1.42
2023-03-18T21:29:52.235Z,1.98
2023-03-18T21:32:31.489Z,1.30
2023-03-18T21:34:58.388Z,1.60
2023-03-18T21:37:27.239Z,1.40
2023-03-18T21:39:54.328Z,1.67
2023-03-18T21:42:24.964Z,1.77
2023-03-18T21:44:52.116Z,2.05
2023-03-18T21:47:21.273Z,2.10
2023-03-18T21:49:48.560Z,1.92
2023-03-18T21:52:20.417Z,1.73
2023-03-18T21:54:47.302Z,2.15
2023-03-18T21:57:18.658Z,2.00
2023-03-18T21:59:46.276Z,2.00
2023-03-18T22:02:32.753Z,3.05
2023-03-18T22:05:01.535Z,2.33
2023-03-18T22:07:31.145Z,2.22
2023-03-18T22:09:58.529Z,1.88
2023-03-18T22:12:30.936Z,1.50
2023-03-18T22:14:58.733Z,1.85
2023-03-18T22:17:34.277Z,1.75
2023-03-18T22:20:01.862Z,1.83
2023-03-18T22:22:34.464Z,1.45
2023-03-18T22:25:01.126Z,2.10
2023-03-18T22:27:29.831Z,1.73
2023-03-18T22:29:59.256Z,1.70
2023-03-18T22:32:40.523Z,1.48
2023-03-18T22:35:14.893Z,1.90
2023-03-18T22:37:42.519Z,2.42
2023-03-18T22:40:23.173Z,1.60
2023-03-18T22:42:55.663Z,1.30
2023-03-18T22:45:23.270Z,1.70
2023-03-18T22:47:51.806Z,1.30
2023-03-18T22:50:19.372Z,1.40
2023-03-18T22:52:48.873Z,1.17
2023-03-18T22:55:23.117Z,1.60
2023-03-18T22:57:50.218Z,1.75
2023-03-18T23:00:30.918Z,1.20
2023-03-18T23:02:58.077Z,1.77
2023-03-18T23:05:24.688Z,1.63
2023-03-18T23:07:51.498Z,1.27
2023-03-18T23:10:19.255Z,1.38
2023-03-18T23:12:46.613Z,1.33
2023-03-18T23:15:21.751Z,1.30
2023-03-18T23:17:48.854Z,1.58
2023-03-18T23:20:17.277Z,1.63
2023-03-18T23:22:45.499Z,0.95
2023-03-18T23:25:16.450Z,1.70
2023-03-18T23:27:44.326Z,1.00
2023-03-18T23:30:12.946Z,0.95
2023-03-18T23:32:40.935Z,1.10
2023-03-18T23:35:08.633Z,1.20
2023-03-18T23:37:35.200Z,1.45
2023-03-18T23:40:02.966Z,1.20
2023-03-18T23:42:29.544Z,1.20
2023-03-18T23:44:56.410Z,1.27
2023-03-18T23:47:23.073Z,2.00
2023-03-18T23:49:49.591Z,1.67
2023-03-18T23:52:16.635Z,1.52
2023-03-18T23:54:43.198Z,1.40
2023-03-18T23:57:10.627Z,1.27
2023-03-18T23:59:38.273Z,1.17
